createdAt,value
2019-04-26T00:01:02.845Z,14.12
2019-04-26T00:03:35.856Z,14.05
2019-04-26T00:06:08.995Z,13.98
2019-04-26T00:08:41.661Z,13.92
2019-04-26T00:11:16.081Z,13.84
2019-04-26T00:13:49.033Z,13.78
2019-04-26T00:16:21.638Z,13.78
2019-04-26T00:18:53.305Z,13.78
2019-04-26T00:21:24.794Z,13.80
2019-04-26T00:23:57.304Z,13.85
2019-04-26T00:26:29.635Z,13.84
2019-04-26T00:29:00.834Z,13.79
2019-04-26T00:31:32.273Z,13.73
2019-04-26T00:34:03.451Z,13.70
2019-04-26T00:36:35.664Z,13.67
2019-04-26T00:39:07.951Z,13.63
2019-04-26T00:41:39.896Z,13.66
2019-04-26T00:44:12.206Z,13.68
2019-04-26T00:46:46.080Z,13.73
2019-04-26T00:49:19.229Z,13.74
2019-04-26T00:51:50.872Z,13.74
2019-04-26T00:54:24.368Z,13.74
2019-04-26T00:56:56.560Z,13.73
2019-04-26T00:59:28.209Z,13.70
2019-04-26T01:02:01.157Z,13.71
2019-04-26T01:04:32.836Z,13.64
2019-04-26T01:07:04.501Z,13.62
2019-04-26T01:09:36.296Z,13.63
2019-04-26T01:12:07.568Z,13.55
2019-04-26T01:14:39.432Z,13.50
2019-04-26T01:17:10.764Z,13.47
2019-04-26T01:19:44.286Z,13.47
2019-04-26T01:22:19.319Z,13.52
2019-04-26T01:24:52.950Z,13.46
2019-04-26T01:27:27.784Z,13.37
2019-04-26T01:30:02.051Z,13.31
2019-04-26T01:32:36.765Z,13.22
2019-04-26T01:35:08.300Z,13.17
2019-04-26T01:37:42.349Z,13.05
2019-04-26T01:40:15.353Z,13.02
2019-04-26T01:42:50.977Z,13.00
2019-04-26T01:45:27.908Z,12.98
2019-04-26T01:48:00.483Z,12.86
2019-04-26T01:50:34.474Z,12.81
2019-04-26T01:53:07.300Z,12.66
2019-04-26T01:55:39.475Z,12.67
2019-04-26T01:58:10.426Z,12.65
2019-04-26T02:00:43.773Z,12.71
2019-04-26T02:03:16.783Z,12.76
2019-04-26T02:05:48.592Z,12.75
2019-04-26T02:08:19.800Z,12.77
2019-04-26T02:10:51.209Z,12.76
2019-04-26T02:13:25.193Z,12.63
2019-04-26T02:15:57.959Z,12.71
2019-04-26T02:18:29.379Z,12.78
2019-04-26T02:21:05.514Z,12.75
2019-04-26T02:23:39.140Z,12.70
2019-04-26T02:26:12.249Z,12.75
2019-04-26T02:28:44.304Z,12.69
2019-04-26T02:31:16.206Z,12.62
2019-04-26T02:33:47.965Z,12.58
2019-04-26T02:36:20.711Z,12.59
2019-04-26T02:38:55.701Z,12.49
2019-04-26T02:41:29.952Z,12.50
2019-04-26T02:44:03.742Z,12.48
2019-04-26T02:46:39.630Z,12.47
2019-04-26T02:49:12.393Z,12.34
2019-04-26T02:51:46.558Z,12.19
2019-04-26T02:54:23.371Z,12.07
2019-04-26T02:56:57.611Z,12.03
2019-04-26T02:59:33.968Z,11.95
2019-04-26T03:02:07.172Z,11.86
2019-04-26T03:04:41.969Z,11.91
2019-04-26T03:07:16.100Z,11.96
2019-04-26T03:09:50.099Z,12.01
2019-04-26T03:12:24.164Z,11.99
2019-04-26T03:15:13.161Z,12.09
2019-04-26T05:08:45.527Z,14.24
2019-04-26T05:11:20.608Z,14.36
2019-04-26T05:13:54.202Z,14.51
2019-04-26T05:16:29.623Z,14.61
2019-04-26T05:19:05.721Z,14.73
2019-04-26T05:21:39.825Z,14.89
2019-04-26T05:24:29.642Z,15.06
2019-04-26T05:27:06.865Z,15.19
2019-04-26T05:29:43.173Z,15.27
2019-04-26T05:32:15.450Z,15.33
2019-04-26T05:34:52.765Z,15.38
2019-04-26T05:37:27.256Z,15.45
2019-04-26T05:40:01.801Z,15.51
2019-04-26T05:42:38.530Z,15.56
2019-04-26T05:45:14.980Z,15.58
2019-04-26T05:48:07.167Z,15.63
2019-04-26T05:50:28.882Z,15.69
2019-04-26T05:53:05.071Z,15.72
2019-04-26T05:55:40.563Z,15.75
2019-04-26T05:58:14.782Z,15.78
2019-04-26T06:00:52.123Z,15.84
2019-04-26T06:03:28.280Z,15.91
2019-04-26T06:06:05.485Z,15.98
2019-04-26T06:08:40.107Z,15.98
2019-04-26T06:11:16.129Z,15.98
2019-04-26T06:13:53.681Z,16.07
2019-04-26T06:16:29.616Z,16.14
2019-04-26T06:19:05.266Z,16.23
2019-04-26T06:21:39.733Z,16.36
2019-04-26T06:24:14.347Z,16.55
2019-04-26T06:26:50.422Z,16.77
2019-04-26T06:29:24.892Z,17.00
2019-04-26T06:32:00.490Z,17.18
2019-04-26T06:34:34.610Z,17.33
2019-04-26T06:37:13.242Z,17.46
2019-04-26T06:39:49.195Z,17.70
2019-04-26T06:42:23.326Z,17.92
2019-04-26T06:45:04.710Z,18.16
2019-04-26T06:47:40.622Z,18.36
2019-04-26T06:50:16.706Z,18.57
2019-04-26T06:52:53.749Z,18.79
2019-04-26T06:55:29.676Z,18.90
2019-04-26T06:58:13.477Z,19.08
2019-04-26T07:01:05.419Z,19.27
2019-04-26T07:03:40.220Z,19.47
2019-04-26T07:06:14.618Z,19.66
2019-04-26T07:08:57.168Z,19.85
2019-04-26T07:11:23.218Z,20.05
2019-04-26T07:13:59.299Z,20.20
2019-04-26T07:16:32.937Z,20.37
2019-04-26T07:19:08.241Z,20.60
2019-04-26T07:21:44.310Z,20.80
2019-04-26T07:24:22.138Z,20.97
2019-04-26T07:26:56.647Z,21.11
2019-04-26T07:29:33.931Z,21.15
2019-04-26T07:32:07.937Z,21.36
2019-04-26T07:34:43.739Z,21.50
2019-04-26T07:37:18.221Z,21.64
2019-04-26T07:39:50.642Z,21.77
2019-04-26T07:42:26.401Z,21.97
2019-04-26T07:45:03.832Z,22.06
2019-04-26T07:47:40.448Z,22.20
2019-04-26T07:50:14.990Z,22.46
2019-04-26T07:52:49.714Z,22.66
2019-04-26T07:55:24.845Z,22.81
2019-04-26T07:57:59.100Z,22.94
2019-04-26T08:00:44.389Z,23.14
2019-04-26T08:03:13.010Z,23.21
2019-04-26T08:05:49.063Z,23.32
2019-04-26T08:08:23.483Z,23.38
2019-04-26T08:10:58.405Z,23.56
2019-04-26T08:13:32.627Z,23.71
2019-04-26T08:16:08.661Z,23.89
2019-04-26T08:18:44.495Z,23.91
2019-04-26T08:21:23.269Z,23.81
2019-04-26T08:24:01.094Z,24.07
2019-04-26T08:26:35.955Z,24.13
2019-04-26T08:29:12.912Z,24.23
2019-04-26T08:31:49.598Z,24.34
2019-04-26T08:34:28.527Z,24.46
2019-04-26T08:37:03.227Z,24.46
2019-04-26T08:39:44.956Z,24.58
2019-04-26T08:42:18.154Z,24.66
2019-04-26T08:44:46.974Z,24.72
2019-04-26T08:47:24.874Z,24.95
2019-04-26T08:49:56.504Z,25.15
2019-04-26T08:52:31.423Z,25.24
2019-04-26T08:55:07.238Z,25.48
2019-04-26T08:57:42.097Z,25.66
2019-04-26T09:00:17.710Z,25.71
2019-04-26T09:02:55.536Z,25.70
2019-04-26T09:05:31.905Z,25.81
2019-04-26T09:08:06.008Z,25.88
2019-04-26T09:10:43.329Z,25.94
2019-04-26T09:13:16.086Z,25.86
2019-04-26T09:15:49.334Z,25.89
2019-04-26T09:18:21.049Z,25.94
2019-04-26T09:20:54.025Z,26.08
2019-04-26T09:23:39.574Z,26.21
2019-04-26T09:26:04.391Z,26.31
2019-04-26T09:28:38.802Z,26.23
2019-04-26T09:31:15.337Z,26.40
2019-04-26T09:33:46.748Z,26.73
2019-04-26T09:36:23.690Z,26.61
2019-04-26T09:38:56.235Z,26.51
2019-04-26T09:41:30.819Z,26.73
2019-04-26T09:44:02.584Z,26.74
2019-04-26T09:46:36.111Z,26.89
2019-04-26T09:49:09.076Z,27.08
2019-04-26T09:51:40.757Z,26.99
2019-04-26T09:54:15.233Z,26.95
2019-04-26T09:56:45.693Z,27.17
2019-04-26T09:59:18.298Z,27.34
2019-04-26T10:01:50.220Z,27.37
2019-04-26T10:04:23.977Z,27.35
2019-04-26T10:06:59.414Z,27.49
2019-04-26T10:09:31.673Z,27.33
2019-04-26T10:12:06.578Z,27.14
2019-04-26T10:14:40.534Z,27.01
2019-04-26T10:17:15.676Z,27.18
2019-04-26T10:19:48.297Z,27.14
2019-04-26T10:22:20.532Z,27.37
2019-04-26T10:24:52.023Z,27.50
2019-04-26T10:27:23.562Z,27.49
2019-04-26T10:30:07.444Z,27.62
2019-04-26T10:32:30.139Z,27.65
2019-04-26T10:35:01.557Z,27.76
2019-04-26T10:37:39.159Z,27.73
2019-04-26T10:40:08.011Z,27.61
2019-04-26T10:42:39.489Z,27.57
2019-04-26T10:45:14.617Z,27.50
2019-04-26T10:47:47.688Z,27.56
2019-04-26T10:50:19.544Z,27.84
2019-04-26T10:52:54.168Z,28.03
2019-04-26T10:55:27.557Z,27.80
2019-04-26T10:58:01.613Z,27.69
2019-04-26T11:00:35.038Z,27.95
2019-04-26T11:03:06.578Z,28.01
2019-04-26T11:05:39.370Z,28.32
2019-04-26T11:08:12.223Z,28.54
2019-04-26T11:10:48.788Z,28.49
2019-04-26T11:13:17.586Z,28.29
2019-04-26T11:15:49.687Z,28.34
2019-04-26T11:18:27.310Z,28.24
2019-04-26T11:20:54.791Z,28.42
2019-04-26T11:23:26.642Z,28.40
2019-04-26T11:26:01.698Z,28.29
2019-04-26T11:28:32.098Z,28.22
2019-04-26T11:31:03.652Z,28.28
2019-04-26T11:33:44.740Z,28.22
2019-04-26T11:36:09.477Z,28.32
2019-04-26T11:38:41.177Z,28.26
2019-04-26T11:41:12.858Z,28.44
2019-04-26T11:43:44.407Z,28.59
2019-04-26T11:46:16.173Z,28.65
2019-04-26T11:48:58.579Z,28.65
2019-04-26T11:51:23.562Z,28.81
2019-04-26T11:53:55.691Z,28.94
2019-04-26T11:56:27.733Z,28.93
2019-04-26T11:58:59.391Z,28.84
2019-04-26T12:01:31.194Z,28.82
2019-04-26T12:04:07.269Z,28.81
2019-04-26T12:06:40.356Z,28.87
2019-04-26T12:09:21.168Z,28.99
2019-04-26T12:12:04.410Z,28.96
2019-04-26T12:14:29.611Z,28.69
2019-04-26T12:17:01.753Z,28.54
2019-04-26T12:19:33.988Z,28.71
2019-04-26T12:22:08.451Z,28.74
2019-04-26T12:24:39.118Z,28.73
2019-04-26T12:27:10.990Z,28.87
2019-04-26T12:29:44.228Z,28.92
2019-04-26T12:32:17.248Z,28.83
2019-04-26T12:34:53.963Z,28.95
2019-04-26T12:37:25.368Z,29.07
2019-04-26T12:39:57.106Z,29.24
2019-04-26T12:42:29.236Z,29.41
2019-04-26T12:45:02.541Z,29.50
2019-04-26T12:47:38.643Z,29.46
2019-04-26T12:50:08.894Z,29.39
2019-04-26T12:52:41.399Z,28.96
2019-04-26T12:55:13.731Z,28.97
2019-04-26T12:57:46.150Z,29.18
2019-04-26T13:00:19.618Z,29.36
2019-04-26T13:02:54.250Z,29.35
2019-04-26T13:05:26.071Z,29.28
2019-04-26T13:07:57.724Z,29.41
2019-04-26T13:10:31.396Z,29.52
2019-04-26T13:13:05.876Z,29.56
2019-04-26T13:15:41.706Z,29.60
2019-04-26T13:18:13.405Z,29.57
2019-04-26T13:20:45.483Z,29.60
2019-04-26T13:23:29.825Z,29.30
2019-04-26T13:26:01.461Z,29.25
2019-04-26T13:28:32.444Z,29.35
2019-04-26T13:31:05.249Z,29.44
2019-04-26T13:33:37.594Z,29.39
2019-04-26T13:36:10.881Z,29.54
2019-04-26T13:38:43.679Z,29.52
2019-04-26T13:41:15.664Z,29.42
2019-04-26T13:43:47.144Z,29.40
2019-04-26T13:46:20.097Z,29.34
2019-04-26T13:48:52.798Z,29.33
2019-04-26T13:51:26.853Z,29.35
2019-04-26T13:53:57.997Z,29.38
2019-04-26T13:56:32.060Z,29.32
2019-04-26T13:59:02.508Z,29.23
2019-04-26T14:01:33.884Z,29.29
2019-04-26T14:04:06.954Z,29.31
2019-04-26T14:06:40.805Z,29.21
2019-04-26T14:09:13.994Z,29.21
2019-04-26T14:11:46.040Z,29.20
2019-04-26T14:14:17.882Z,29.13
2019-04-26T14:16:52.052Z,28.94
2019-04-26T14:19:23.040Z,28.84
2019-04-26T14:21:54.861Z,28.80
2019-04-26T14:24:28.528Z,28.82
2019-04-26T14:27:02.138Z,28.85
2019-04-26T14:29:54.843Z,28.88
2019-04-26T14:33:02.511Z,28.91
2019-04-26T14:36:00.962Z,28.96
2019-04-26T14:38:47.132Z,28.95
2019-04-26T14:41:36.844Z,28.90
2019-04-26T14:44:15.622Z,28.95
2019-04-26T14:46:48.998Z,28.92
2019-04-26T14:49:19.239Z,29.05
2019-04-26T14:51:50.819Z,29.12
2019-04-26T14:54:22.688Z,29.05
2019-04-26T14:56:55.386Z,28.92
2019-04-26T14:59:28.609Z,28.80
2019-04-26T15:02:02.668Z,28.76
2019-04-26T15:04:36.625Z,28.85
2019-04-26T15:07:08.579Z,28.78
2019-04-26T15:09:40.454Z,28.84
2019-04-26T15:12:15.783Z,28.95
2019-04-26T15:14:49.278Z,28.92
2019-04-26T15:17:26.635Z,28.84
2019-04-26T15:19:58.362Z,28.90
2019-04-26T15:22:30.374Z,28.76
2019-04-26T15:25:03.427Z,28.78
2019-04-26T15:27:36.222Z,28.59
2019-04-26T15:30:08.785Z,28.54
2019-04-26T15:32:40.217Z,28.52
2019-04-26T15:35:20.357Z,28.49
2019-04-26T15:37:57.395Z,28.40
2019-04-26T15:40:35.172Z,28.39
2019-04-26T15:43:14.241Z,28.38
2019-04-26T15:45:43.697Z,28.33
2019-04-26T15:48:20.178Z,28.33
2019-04-26T15:50:53.586Z,28.39
2019-04-26T15:53:24.669Z,28.49
2019-04-26T15:55:55.624Z,28.54
2019-04-26T15:58:26.497Z,28.49
2019-04-26T16:00:57.592Z,28.46
2019-04-26T16:03:28.353Z,28.41
2019-04-26T16:06:06.914Z,28.31
2019-04-26T16:08:34.027Z,28.07
2019-04-26T16:11:07.211Z,27.94
2019-04-26T16:13:39.264Z,27.79
2019-04-26T16:16:12.505Z,27.69
2019-04-26T16:18:49.924Z,27.64
2019-04-26T16:21:19.374Z,27.57
2019-04-26T16:23:55.012Z,27.55
2019-04-26T16:26:25.853Z,27.43
2019-04-26T16:28:59.045Z,27.36
2019-04-26T16:31:45.660Z,27.30
2019-04-26T16:34:18.275Z,27.24
2019-04-26T16:36:50.076Z,27.16
2019-04-26T16:39:23.243Z,27.11
2019-04-26T16:41:59.276Z,27.06
2019-04-26T16:44:31.485Z,26.97
2019-04-26T16:47:05.761Z,26.84
2019-04-26T16:49:42.090Z,26.81
2019-04-26T16:52:08.666Z,26.75
2019-04-26T16:54:40.612Z,26.70
2019-04-26T16:57:13.642Z,26.73
2019-04-26T16:59:54.232Z,26.68
2019-04-26T17:02:25.650Z,26.64
2019-04-26T17:04:53.411Z,26.57
2019-04-26T17:07:27.343Z,26.52
2019-04-26T17:09:59.776Z,26.51
2019-04-26T17:12:33.059Z,26.45
2019-04-26T17:15:06.977Z,26.42
2019-04-26T17:17:41.271Z,26.34
2019-04-26T17:20:12.961Z,26.28
2019-04-26T17:22:55.779Z,26.19
2019-04-26T17:25:25.083Z,26.05
2019-04-26T17:27:52.922Z,25.97
2019-04-26T17:30:26.295Z,25.88
2019-04-26T17:32:57.859Z,25.79
2019-04-26T17:35:29.938Z,25.66
2019-04-26T17:38:04.988Z,25.50
2019-04-26T17:40:36.676Z,25.34
2019-04-26T17:43:11.476Z,25.16
2019-04-26T17:45:44.134Z,24.98
2019-04-26T17:48:15.238Z,24.84
2019-04-26T17:50:51.499Z,24.73
2019-04-26T17:53:30.852Z,24.61
2019-04-26T17:55:57.232Z,24.51
2019-04-26T17:58:33.617Z,24.36
2019-04-26T18:01:03.766Z,24.30
2019-04-26T18:03:35.843Z,24.18
2019-04-26T18:06:09.602Z,24.05
2019-04-26T18:08:51.174Z,24.01
2019-04-26T18:11:19.669Z,23.92
2019-04-26T18:13:52.216Z,23.82
2019-04-26T18:16:29.139Z,23.69
2019-04-26T18:18:57.318Z,23.58
2019-04-26T18:21:30.179Z,23.47
2019-04-26T18:24:02.874Z,23.39
2019-04-26T18:26:34.139Z,23.32
2019-04-26T18:29:05.557Z,23.25
2019-04-26T18:31:37.178Z,23.13
2019-04-26T18:34:08.817Z,23.03
2019-04-26T18:36:40.018Z,23.00
2019-04-26T18:39:18.017Z,22.92
2019-04-26T18:41:50.198Z,22.81
2019-04-26T18:44:36.245Z,22.65
2019-04-26T18:46:59.738Z,22.58
2019-04-26T18:49:39.002Z,22.54
2019-04-26T18:52:11.262Z,22.45
2019-04-26T18:54:47.858Z,22.39
2019-04-26T18:57:20.461Z,22.30
2019-04-26T18:59:52.923Z,22.24
2019-04-26T19:02:26.023Z,22.12
2019-04-26T19:05:03.724Z,22.09
2019-04-26T19:07:40.540Z,22.04
2019-04-26T19:10:12.178Z,21.99
2019-04-26T19:12:44.900Z,21.91
2019-04-26T19:15:24.806Z,21.86
2019-04-26T19:18:00.187Z,21.81
2019-04-26T19:20:33.720Z,21.74
2019-04-26T19:23:08.940Z,21.67
2019-04-26T19:25:41.226Z,21.58
2019-04-26T19:28:12.925Z,21.45
2019-04-26T19:30:49.360Z,21.29
2019-04-26T19:33:19.298Z,21.21
2019-04-26T19:35:50.343Z,21.08
2019-04-26T19:38:21.932Z,21.02
2019-04-26T19:40:54.141Z,20.98
2019-04-26T19:43:31.091Z,20.98
2019-04-26T19:46:01.484Z,20.92
2019-04-26T19:48:35.206Z,20.78
2019-04-26T19:51:08.374Z,20.66
2019-04-26T19:53:42.948Z,20.57
2019-04-26T19:56:17.446Z,20.56
2019-04-26T19:58:57.390Z,20.51
2019-04-26T20:01:43.775Z,20.44
2019-04-26T20:11:29.445Z,20.29
2019-04-26T20:14:08.165Z,20.18
2019-04-26T20:16:40.800Z,20.08
2019-04-26T20:19:17.724Z,20.04
2019-04-26T20:21:49.728Z,20.01
2019-04-26T20:24:19.572Z,19.95
2019-04-26T20:27:03.582Z,19.89
2019-04-26T20:29:51.642Z,19.84
2019-04-26T20:32:56.370Z,19.77
2019-04-26T20:35:43.921Z,19.73
2019-04-26T20:38:19.439Z,19.64
2019-04-26T20:40:53.364Z,19.57
2019-04-26T20:43:26.517Z,19.48
2019-04-26T20:46:12.558Z,19.41
2019-04-26T20:49:12.160Z,19.30
2019-04-26T20:51:52.597Z,19.30
2019-04-26T20:54:24.214Z,19.23
2019-04-26T20:56:56.133Z,19.14
2019-04-26T20:59:28.157Z,19.15
2019-04-26T21:02:07.580Z,19.12
2019-04-26T21:04:37.978Z,19.08
2019-04-26T21:07:12.858Z,19.04
2019-04-26T21:09:43.374Z,18.98
2019-04-26T21:12:17.278Z,18.96
2019-04-26T21:14:48.247Z,18.88
2019-04-26T21:17:26.378Z,18.81
2019-04-26T21:19:58.539Z,18.74
2019-04-26T21:22:28.807Z,18.74
2019-04-26T21:25:04.711Z,18.81
2019-04-26T21:27:38.444Z,18.79
2019-04-26T21:30:13.536Z,18.66
2019-04-26T21:32:46.695Z,18.65
2019-04-26T21:35:25.038Z,18.71
2019-04-26T21:37:56.493Z,18.73
2019-04-26T21:40:30.561Z,18.69
2019-04-26T21:43:03.233Z,18.57
2019-04-26T21:45:35.443Z,18.61
2019-04-26T21:48:08.157Z,18.52
2019-04-26T21:50:40.264Z,18.51
2019-04-26T21:53:13.349Z,18.28
2019-04-26T21:55:45.122Z,18.07
2019-04-26T21:58:17.204Z,18.31
2019-04-26T22:00:53.871Z,18.49
2019-04-26T22:03:27.087Z,18.61
2019-04-26T22:05:59.687Z,18.71
2019-04-26T22:08:34.748Z,18.75
2019-04-26T22:11:07.763Z,18.75
2019-04-26T22:13:42.817Z,18.80
2019-04-26T22:16:33.481Z,18.80
2019-04-26T22:18:56.524Z,18.75
2019-04-26T22:21:29.958Z,18.70
2019-04-26T22:24:05.975Z,18.64
2019-04-26T22:26:38.078Z,18.65
2019-04-26T22:29:13.994Z,18.67
2019-04-26T22:31:43.951Z,18.66
2019-04-26T22:34:16.971Z,18.52
2019-04-26T22:36:48.050Z,18.38
2019-04-26T22:39:19.184Z,18.30
2019-04-26T22:41:50.243Z,18.32
2019-04-26T22:44:24.866Z,18.08
2019-04-26T22:46:58.857Z,17.73
2019-04-26T22:49:34.940Z,17.99
2019-04-26T22:52:06.425Z,18.18
2019-04-26T22:54:37.700Z,18.37
2019-04-26T22:57:13.201Z,18.54
2019-04-26T22:59:53.570Z,18.63
2019-04-26T23:02:33.291Z,18.73
2019-04-26T23:05:10.904Z,18.83
2019-04-26T23:07:43.664Z,18.88
2019-04-26T23:10:15.367Z,18.89
2019-04-26T23:12:48.073Z,18.87
2019-04-26T23:15:25.924Z,18.88
2019-04-26T23:17:56.672Z,18.84
2019-04-26T23:20:29.164Z,18.83
2019-04-26T23:23:05.223Z,18.78
2019-04-26T23:25:34.870Z,18.72
2019-04-26T23:28:07.452Z,18.69
2019-04-26T23:30:39.575Z,18.63
2019-04-26T23:33:13.182Z,18.60
2019-04-26T23:35:47.584Z,18.55
2019-04-26T23:38:18.511Z,18.49
2019-04-26T23:40:50.896Z,18.43
2019-04-26T23:43:25.489Z,18.36
2019-04-26T23:45:55.623Z,18.34
2019-04-26T23:48:26.930Z,18.29
2019-04-26T23:50:59.878Z,18.23
2019-04-26T23:53:33.645Z,18.11
2019-04-26T23:56:05.181Z,18.05
2019-04-26T23:58:36.622Z,17.97
